createdAt,value
2017-07-05T00:00:32.055Z,54.90
2017-07-05T00:02:59.521Z,54.90
2017-07-05T00:05:27.082Z,54.70
2017-07-05T00:07:54.638Z,54.90
2017-07-05T00:10:22.213Z,54.60
2017-07-05T00:12:50.481Z,54.80
2017-07-05T00:15:18.025Z,54.60
2017-07-05T00:17:45.501Z,54.70
2017-07-05T00:20:13.036Z,54.80
2017-07-05T00:22:40.574Z,54.80
2017-07-05T00:25:08.025Z,54.90
2017-07-05T00:27:35.489Z,54.90
2017-07-05T00:30:02.951Z,55.00
2017-07-05T00:32:30.428Z,55.10
2017-07-05T00:34:57.896Z,54.90
2017-07-05T00:37:25.460Z,55.50
2017-07-05T00:39:53.748Z,55.40
2017-07-05T00:42:21.982Z,55.70
2017-07-05T00:44:49.453Z,55.60
2017-07-05T00:47:17.009Z,55.60
2017-07-05T00:49:44.566Z,55.70
2017-07-05T00:52:12.136Z,55.50
2017-07-05T00:54:39.696Z,55.30
2017-07-05T00:57:07.255Z,55.10
2017-07-05T00:59:34.726Z,55.30
2017-07-05T01:02:02.987Z,55.40
2017-07-05T01:04:30.537Z,55.40
2017-07-05T01:06:58.104Z,55.50
2017-07-05T01:09:25.659Z,55.60
2017-07-05T01:11:53.215Z,55.80
2017-07-05T01:14:20.779Z,55.80
2017-07-05T01:16:48.345Z,55.70
2017-07-05T01:19:16.574Z,56.40
2017-07-05T01:21:44.025Z,55.80
2017-07-05T01:24:11.487Z,55.80
2017-07-05T01:26:38.987Z,55.80
2017-07-05T01:29:06.529Z,56.10
2017-07-05T01:31:33.991Z,56.40
2017-07-05T01:34:01.457Z,56.20
2017-07-05T01:36:29.723Z,56.70
2017-07-05T01:38:57.273Z,56.20
2017-07-05T01:41:24.839Z,56.50
2017-07-05T01:43:52.394Z,56.70
2017-07-05T01:46:19.959Z,57.00
2017-07-05T01:48:47.418Z,56.90
2017-07-05T01:51:14.969Z,57.00
2017-07-05T01:53:42.484Z,57.20
2017-07-05T01:56:09.991Z,57.10
2017-07-05T01:58:38.231Z,57.90
2017-07-05T02:01:05.709Z,57.30
2017-07-05T02:03:33.272Z,57.40
2017-07-05T02:06:00.834Z,57.50
2017-07-05T02:08:28.298Z,57.40
2017-07-05T02:10:55.767Z,57.70
2017-07-05T02:13:24.026Z,57.80
2017-07-05T02:15:51.591Z,57.80
2017-07-05T02:18:19.151Z,57.90
2017-07-05T02:20:47.378Z,57.80
2017-07-05T02:23:14.883Z,58.00
2017-07-05T02:25:42.337Z,58.00
2017-07-05T02:28:10.610Z,58.70
2017-07-05T02:30:38.166Z,58.10
2017-07-05T02:33:05.639Z,58.20
2017-07-05T02:35:33.897Z,58.30
2017-07-05T02:38:01.359Z,58.30
2017-07-05T02:40:28.832Z,58.20
2017-07-05T02:42:57.066Z,58.40
2017-07-05T02:45:24.534Z,58.30
2017-07-05T02:47:52.004Z,58.30
2017-07-05T02:50:19.552Z,58.70
2017-07-05T02:52:47.018Z,58.80
2017-07-05T02:55:14.472Z,58.70
2017-07-05T02:57:42.032Z,58.60
2017-07-05T03:00:09.592Z,58.80
2017-07-05T03:02:37.050Z,58.60
2017-07-05T03:05:05.278Z,59.10
2017-07-05T03:07:32.774Z,58.90
2017-07-05T03:10:00.330Z,59.30
2017-07-05T03:12:27.897Z,59.20
2017-07-05T03:14:55.450Z,59.10
2017-07-05T03:17:22.913Z,59.10
2017-07-05T03:19:50.386Z,59.10
2017-07-05T03:22:18.632Z,59.30
2017-07-05T03:24:46.114Z,59.20
2017-07-05T03:27:14.361Z,59.40
2017-07-05T03:29:41.831Z,59.30
2017-07-05T03:32:09.307Z,59.60
2017-07-05T03:34:37.558Z,59.60
2017-07-05T03:37:05.026Z,59.50
2017-07-05T03:39:33.286Z,59.70
2017-07-05T03:42:00.849Z,59.50
2017-07-05T03:44:28.416Z,59.40
2017-07-05T03:46:56.740Z,59.90
2017-07-05T03:49:24.197Z,59.40
2017-07-05T03:51:51.699Z,59.40
2017-07-05T03:54:19.246Z,59.60
2017-07-05T03:56:46.719Z,59.50
2017-07-05T03:59:14.276Z,59.50
2017-07-05T04:01:41.827Z,59.60
2017-07-05T04:04:09.282Z,59.70
2017-07-05T04:06:36.837Z,59.80
2017-07-05T04:09:04.405Z,59.80
2017-07-05T04:11:31.968Z,59.90
2017-07-05T04:13:59.437Z,60.00
2017-07-05T04:16:27.662Z,60.20
2017-07-05T04:18:55.150Z,60.20
2017-07-05T04:21:22.719Z,60.10
2017-07-05T04:23:50.177Z,60.00
2017-07-05T04:26:18.433Z,60.00
2017-07-05T04:28:45.893Z,60.00
2017-07-05T04:31:13.456Z,59.90
2017-07-05T04:33:41.022Z,59.30
2017-07-05T04:36:08.478Z,59.00
2017-07-05T04:38:35.941Z,59.30
2017-07-05T04:41:04.202Z,59.60
2017-07-05T04:43:31.763Z,59.00
2017-07-05T04:45:59.323Z,59.80
2017-07-05T04:48:26.887Z,61.00
2017-07-05T04:50:54.359Z,61.10
2017-07-05T04:53:22.613Z,61.30
2017-07-05T04:55:50.091Z,62.10
2017-07-05T04:58:18.356Z,62.10
2017-07-05T05:00:45.813Z,61.90
2017-07-05T05:03:14.039Z,62.40
2017-07-05T05:05:41.502Z,62.20
2017-07-05T05:08:08.957Z,61.10
2017-07-05T05:10:37.361Z,61.10
2017-07-05T05:13:04.943Z,61.80
2017-07-05T05:15:33.168Z,61.20
2017-07-05T05:18:00.667Z,61.00
2017-07-05T05:20:28.215Z,61.40
2017-07-05T05:22:55.673Z,61.20
2017-07-05T05:25:23.248Z,60.00
2017-07-05T05:27:50.797Z,59.30
2017-07-05T05:30:18.267Z,59.80
2017-07-05T05:32:46.514Z,59.70
2017-07-05T05:35:13.983Z,59.70
2017-07-05T05:37:41.535Z,59.70
2017-07-05T05:40:08.984Z,59.90
2017-07-05T05:42:36.545Z,59.70
2017-07-05T05:45:04.041Z,59.50
2017-07-05T05:47:31.478Z,59.50
2017-07-05T05:49:59.707Z,59.00
2017-07-05T05:52:27.174Z,59.00
2017-07-05T05:54:54.645Z,58.80
2017-07-05T05:57:22.105Z,58.70
2017-07-05T05:59:49.664Z,58.80
2017-07-05T06:02:17.131Z,59.10
2017-07-05T06:04:44.610Z,59.40
2017-07-05T06:09:46.751Z,59.00
2017-07-05T06:12:14.213Z,59.40
2017-07-05T06:14:41.782Z,59.50
2017-07-05T06:17:09.345Z,59.50
2017-07-05T06:19:37.619Z,59.80
2017-07-05T06:22:05.092Z,59.60
2017-07-05T06:24:33.328Z,59.60
2017-07-05T06:27:00.803Z,59.50
2017-07-05T06:29:28.279Z,59.60
2017-07-05T06:31:56.533Z,60.00
2017-07-05T06:34:23.999Z,60.00
2017-07-05T06:36:52.239Z,60.50
2017-07-05T06:39:19.708Z,60.40
2017-07-05T06:41:47.278Z,60.60
2017-07-05T06:44:14.832Z,60.40
2017-07-05T06:46:42.402Z,60.00
2017-07-05T06:49:10.771Z,60.10
2017-07-05T06:51:38.247Z,60.90
2017-07-05T06:54:06.500Z,61.20
2017-07-05T06:56:33.970Z,61.20
2017-07-05T06:59:01.438Z,62.70
2017-07-05T07:01:29.678Z,62.30
2017-07-05T07:03:57.146Z,62.30
2017-07-05T07:06:24.717Z,61.90
2017-07-05T07:08:52.183Z,61.80
2017-07-05T07:11:20.420Z,63.00
2017-07-05T07:13:47.888Z,62.40
2017-07-05T07:16:15.462Z,62.50
2017-07-05T07:18:43.014Z,62.50
2017-07-05T07:21:10.569Z,62.60
2017-07-05T07:23:38.141Z,63.30
2017-07-05T07:26:05.603Z,63.90
2017-07-05T07:28:33.873Z,64.50
2017-07-05T07:31:01.432Z,64.00
2017-07-05T07:33:28.973Z,64.00
2017-07-05T07:35:56.537Z,64.10
2017-07-05T07:38:23.992Z,64.80
2017-07-05T07:40:51.544Z,64.90
2017-07-05T07:43:19.042Z,65.20
2017-07-05T07:45:47.295Z,65.10
2017-07-05T07:48:14.778Z,65.00
2017-07-05T07:50:42.311Z,65.40
2017-07-05T07:53:09.765Z,64.90
2017-07-05T07:55:37.994Z,65.70
2017-07-05T07:58:05.494Z,65.60
2017-07-05T08:00:32.945Z,65.70
2017-07-05T08:03:00.405Z,64.90
2017-07-05T08:05:27.967Z,64.80
2017-07-05T08:07:55.532Z,65.10
2017-07-05T08:10:23.073Z,64.60
2017-07-05T08:12:50.533Z,65.10
2017-07-05T08:15:18.010Z,65.70
2017-07-05T08:17:46.266Z,66.20
2017-07-05T08:20:13.831Z,66.20
2017-07-05T08:22:41.306Z,65.80
2017-07-05T08:25:09.533Z,64.70
2017-07-05T08:27:37.027Z,65.50
2017-07-05T08:30:05.291Z,63.20
2017-07-05T08:32:32.763Z,63.20
2017-07-05T08:35:00.976Z,63.40
2017-07-05T08:37:28.470Z,63.30
2017-07-05T08:39:55.936Z,63.00
2017-07-05T08:42:23.389Z,62.30
2017-07-05T08:44:50.954Z,63.30
2017-07-05T08:47:18.422Z,62.50
2017-07-05T08:49:46.682Z,61.20
2017-07-05T08:52:14.246Z,61.90
2017-07-05T08:54:41.711Z,62.10
2017-07-05T08:57:09.937Z,62.20
2017-07-05T08:59:37.441Z,62.00
2017-07-05T09:02:04.994Z,65.00
2017-07-05T09:04:32.536Z,62.70
2017-07-05T09:07:00.106Z,60.30
2017-07-05T09:09:27.668Z,59.80
2017-07-05T09:11:55.126Z,60.40
2017-07-05T09:14:22.586Z,60.40
2017-07-05T09:16:50.850Z,60.80
2017-07-05T09:19:18.414Z,59.80
2017-07-05T09:21:45.875Z,59.00
2017-07-05T09:24:13.343Z,58.00
2017-07-05T09:26:41.755Z,58.50
2017-07-05T09:29:09.829Z,58.50
2017-07-05T09:31:38.125Z,56.10
2017-07-05T09:34:05.588Z,56.00
2017-07-05T09:36:33.170Z,56.50
2017-07-05T09:39:00.718Z,55.50
2017-07-05T09:41:28.178Z,55.60
2017-07-05T09:43:55.729Z,57.10
2017-07-05T09:46:23.195Z,57.60
2017-07-05T09:48:50.758Z,57.00
2017-07-05T09:51:18.309Z,57.10
2017-07-05T09:53:45.779Z,56.70
2017-07-05T09:56:13.233Z,52.40
2017-07-05T09:58:40.781Z,53.10
2017-07-05T10:01:08.353Z,54.60
2017-07-05T10:03:35.810Z,55.00
2017-07-05T10:06:03.269Z,54.00
2017-07-05T10:08:31.526Z,54.50
2017-07-05T10:10:58.989Z,54.40
2017-07-05T10:13:26.455Z,55.60
2017-07-05T10:15:54.003Z,55.60
2017-07-05T10:18:22.295Z,55.20
2017-07-05T10:20:50.558Z,55.60
2017-07-05T10:23:18.122Z,55.60
2017-07-05T10:25:45.585Z,55.80
2017-07-05T10:28:13.846Z,53.50
2017-07-05T10:30:41.401Z,54.00
2017-07-05T10:33:08.868Z,53.80
2017-07-05T10:35:36.321Z,52.80
2017-07-05T10:38:03.791Z,53.40
2017-07-05T10:40:32.057Z,54.80
2017-07-05T10:43:00.325Z,54.30
2017-07-05T10:45:27.885Z,54.20
2017-07-05T10:47:55.338Z,54.00
2017-07-05T10:50:22.910Z,54.00
2017-07-05T10:52:51.143Z,54.50
2017-07-05T10:55:18.612Z,54.40
2017-07-05T10:57:46.083Z,54.40
2017-07-05T11:00:13.538Z,53.90
2017-07-05T11:02:40.993Z,54.20
2017-07-05T11:05:08.563Z,52.30
2017-07-05T11:07:36.105Z,51.30
2017-07-05T11:10:03.668Z,52.40
2017-07-05T11:12:31.230Z,52.10
2017-07-05T11:14:58.795Z,52.20
2017-07-05T11:17:26.350Z,51.70
2017-07-05T11:19:53.819Z,52.40
2017-07-05T11:22:21.367Z,53.10
2017-07-05T11:24:48.918Z,52.90
2017-07-05T11:27:16.370Z,53.30
2017-07-05T11:29:43.829Z,53.60
2017-07-05T11:32:11.390Z,53.40
2017-07-05T11:34:38.953Z,53.40
2017-07-05T11:37:06.422Z,52.60
2017-07-05T11:39:33.979Z,52.30
2017-07-05T11:42:01.524Z,51.30
2017-07-05T11:44:29.019Z,50.30
2017-07-05T11:46:56.473Z,50.80
2017-07-05T11:49:23.930Z,50.80
2017-07-05T11:51:51.399Z,51.00
2017-07-05T11:54:18.928Z,50.80
2017-07-05T11:56:47.197Z,53.20
2017-07-05T11:59:14.653Z,53.00
2017-07-05T12:01:42.104Z,52.10
2017-07-05T12:04:09.595Z,52.20
2017-07-05T12:06:37.113Z,51.90
2017-07-05T12:09:04.669Z,52.40
2017-07-05T12:11:32.130Z,53.20
2017-07-05T12:13:59.686Z,52.80
2017-07-05T12:16:27.245Z,49.60
2017-07-05T12:18:54.707Z,49.90
2017-07-05T12:21:22.262Z,50.80
2017-07-05T12:23:49.809Z,50.20
2017-07-05T12:26:17.284Z,49.70
2017-07-05T12:28:44.762Z,48.40
2017-07-05T12:31:13.010Z,48.10
2017-07-05T12:33:40.465Z,48.00
2017-07-05T12:36:08.027Z,49.30
2017-07-05T12:38:35.484Z,50.60
2017-07-05T12:41:03.033Z,50.40
2017-07-05T12:43:30.602Z,51.10
2017-07-05T12:45:58.070Z,51.60
2017-07-05T12:48:26.311Z,51.60
2017-07-05T12:50:53.769Z,51.50
2017-07-05T12:53:21.229Z,51.60
2017-07-05T12:55:48.708Z,52.60
2017-07-05T12:58:16.268Z,51.80
2017-07-05T13:00:43.833Z,51.70
2017-07-05T13:03:12.060Z,50.10
2017-07-05T13:05:39.527Z,50.00
2017-07-05T13:08:06.988Z,50.20
2017-07-05T13:10:34.449Z,50.10
2017-07-05T13:13:01.919Z,50.00
2017-07-05T13:15:29.485Z,49.50
2017-07-05T13:17:56.943Z,49.20
2017-07-05T13:20:24.411Z,50.10
2017-07-05T13:22:51.875Z,50.70
2017-07-05T13:25:19.330Z,51.00
2017-07-05T13:27:47.548Z,51.70
2017-07-05T13:30:15.030Z,52.20
2017-07-05T13:32:42.495Z,50.10
2017-07-05T13:35:09.963Z,50.60
2017-07-05T13:37:38.231Z,51.50
2017-07-05T13:40:05.689Z,51.40
2017-07-05T13:42:33.932Z,51.80
2017-07-05T13:45:01.525Z,51.70
2017-07-05T13:47:28.990Z,50.70
2017-07-05T13:49:57.256Z,46.70
2017-07-05T13:52:24.711Z,46.60
2017-07-05T13:54:52.980Z,48.40
2017-07-05T13:57:20.534Z,47.80
2017-07-05T13:59:48.103Z,48.20
2017-07-05T14:02:15.649Z,47.50
2017-07-05T14:04:43.117Z,48.80
2017-07-05T14:07:10.674Z,49.30
2017-07-05T14:09:38.231Z,47.40
2017-07-05T14:12:05.783Z,48.20
2017-07-05T14:14:33.352Z,48.40
2017-07-05T14:17:00.901Z,47.70
2017-07-05T14:19:28.455Z,47.80
2017-07-05T14:21:56.017Z,48.30
2017-07-05T14:24:23.569Z,48.70
2017-07-05T14:26:51.026Z,45.60
2017-07-05T14:29:18.481Z,47.20
2017-07-05T14:31:45.933Z,46.80
2017-07-05T14:34:13.411Z,47.40
2017-07-05T14:36:40.949Z,48.10
2017-07-05T14:39:08.409Z,45.20
2017-07-05T14:41:35.884Z,44.80
2017-07-05T14:44:03.337Z,45.60
2017-07-05T14:46:30.798Z,45.30
2017-07-05T14:48:58.350Z,43.70
2017-07-05T14:51:25.805Z,44.50
2017-07-05T14:53:53.261Z,45.60
2017-07-05T14:56:20.743Z,47.20
2017-07-05T14:58:48.989Z,44.40
2017-07-05T15:01:16.553Z,44.40
2017-07-05T15:03:44.019Z,44.30
2017-07-05T15:06:12.260Z,44.30
2017-07-05T15:08:39.728Z,44.00
2017-07-05T15:11:07.289Z,43.70
2017-07-05T15:13:34.867Z,44.70
2017-07-05T15:16:02.413Z,44.70
2017-07-05T15:18:29.974Z,45.20
2017-07-05T15:20:57.550Z,45.50
2017-07-05T15:23:25.864Z,45.40
2017-07-05T15:25:53.321Z,45.30
2017-07-05T15:28:20.885Z,44.40
2017-07-05T15:30:48.337Z,44.20
2017-07-05T15:33:15.833Z,44.90
2017-07-05T15:35:43.293Z,44.60
2017-07-05T15:38:10.764Z,45.70
2017-07-05T15:40:38.995Z,47.00
2017-07-05T15:43:06.481Z,46.30
2017-07-05T15:45:33.951Z,45.80
2017-07-05T15:48:01.403Z,43.90
2017-07-05T15:50:28.869Z,43.90
2017-07-05T15:52:57.184Z,43.60
2017-07-05T15:55:24.647Z,43.60
2017-07-05T15:57:52.146Z,44.70
2017-07-05T16:00:19.601Z,44.50
2017-07-05T16:02:47.154Z,44.80
2017-07-05T16:05:14.608Z,45.60
2017-07-05T16:07:42.169Z,45.20
2017-07-05T16:10:09.726Z,45.60
2017-07-05T16:12:37.191Z,46.10
2017-07-05T16:15:04.646Z,46.00
2017-07-05T16:17:32.114Z,45.50
2017-07-05T16:20:00.367Z,46.40
2017-07-05T16:22:27.825Z,46.30
2017-07-05T16:24:55.291Z,45.20
2017-07-05T16:27:22.845Z,44.70
2017-07-05T16:29:50.416Z,44.90
2017-07-05T16:32:18.645Z,46.30
2017-07-05T16:34:46.150Z,45.80
2017-07-05T16:37:13.601Z,45.40
2017-07-05T16:39:41.159Z,45.80
2017-07-05T16:42:08.721Z,46.30
2017-07-05T16:44:36.235Z,46.10
2017-07-05T16:47:03.710Z,45.80
2017-07-05T16:49:31.181Z,45.70
2017-07-05T16:51:58.662Z,46.00
2017-07-05T16:54:26.875Z,47.50
2017-07-05T16:56:54.369Z,47.50
2017-07-05T16:59:21.836Z,47.40
2017-07-05T17:01:49.385Z,47.30
2017-07-05T17:04:16.855Z,46.70
2017-07-05T17:06:45.117Z,47.10
2017-07-05T17:09:12.672Z,46.60
2017-07-05T17:11:40.225Z,47.10
2017-07-05T17:14:07.749Z,47.20
2017-07-05T17:16:35.254Z,47.50
2017-07-05T17:19:08.571Z,47.00
2017-07-05T17:21:36.809Z,46.80
2017-07-05T17:24:04.385Z,46.80
2017-07-05T17:26:31.929Z,47.80
2017-07-05T17:28:59.400Z,46.40
2017-07-05T17:31:27.621Z,46.20
2017-07-05T17:33:55.128Z,46.10
2017-07-05T17:36:22.590Z,46.20
2017-07-05T17:38:50.140Z,46.10
2017-07-05T17:41:17.615Z,45.00
2017-07-05T17:43:45.893Z,44.90
2017-07-05T17:46:13.421Z,44.90
2017-07-05T17:48:40.894Z,44.50
2017-07-05T17:51:08.451Z,45.40
2017-07-05T17:53:36.002Z,45.10
2017-07-05T17:56:03.466Z,46.10
2017-07-05T17:58:30.933Z,46.10
2017-07-05T18:00:59.175Z,46.60
2017-07-05T18:03:26.635Z,46.50
2017-07-05T18:05:54.219Z,46.00
2017-07-05T18:08:22.445Z,46.50
2017-07-05T18:10:49.915Z,46.40
2017-07-05T18:13:17.370Z,46.30
2017-07-05T18:15:44.915Z,46.30
2017-07-05T18:18:12.678Z,46.40
2017-07-05T18:20:40.183Z,46.70
2017-07-05T18:23:07.771Z,46.90
2017-07-05T18:25:35.230Z,46.80
2017-07-05T18:28:02.745Z,47.10
2017-07-05T18:30:30.318Z,47.20
2017-07-05T18:32:58.547Z,48.10
2017-07-05T18:35:26.028Z,47.30
2017-07-05T18:37:53.493Z,47.30
2017-07-05T18:40:21.050Z,47.60
2017-07-05T18:42:48.519Z,47.60
2017-07-05T18:45:15.985Z,48.10
2017-07-05T18:47:44.246Z,48.10
2017-07-05T18:50:11.703Z,48.10
2017-07-05T18:52:39.166Z,48.20
2017-07-05T18:55:06.631Z,48.70
2017-07-05T18:57:34.883Z,49.20
2017-07-05T19:00:02.441Z,48.70
2017-07-05T19:02:30.375Z,48.60
2017-07-05T19:04:57.879Z,49.10
2017-07-05T19:07:25.425Z,49.50
2017-07-05T19:09:53.203Z,49.40
2017-07-05T19:12:20.759Z,49.20
2017-07-05T19:14:48.313Z,48.70
2017-07-05T19:17:15.926Z,48.70
2017-07-05T19:19:43.436Z,49.20
2017-07-05T19:22:10.994Z,49.40
2017-07-05T19:24:38.448Z,49.70
2017-07-05T19:27:05.900Z,49.40
2017-07-05T19:29:33.451Z,49.80
2017-07-05T19:32:00.913Z,49.80
2017-07-05T19:34:28.387Z,50.00
2017-07-05T19:36:56.651Z,50.60
2017-07-05T19:39:24.211Z,50.00
2017-07-05T19:41:51.752Z,50.00
2017-07-05T19:44:19.327Z,50.10
2017-07-05T19:46:46.874Z,50.60
2017-07-05T19:49:14.343Z,50.90
2017-07-05T19:51:41.903Z,50.60
2017-07-05T19:54:09.458Z,50.80
2017-07-05T19:56:37.560Z,50.90
2017-07-05T19:59:05.858Z,51.10
2017-07-05T20:01:33.826Z,51.50
2017-07-05T20:04:01.796Z,51.60
2017-07-05T20:06:29.346Z,51.80
2017-07-05T20:08:56.806Z,51.90
2017-07-05T20:11:24.314Z,52.40
2017-07-05T20:13:51.778Z,52.50
2017-07-05T20:16:19.349Z,52.80
2017-07-05T20:18:47.863Z,53.30
2017-07-05T20:21:15.360Z,53.20
2017-07-05T20:23:42.921Z,53.40
2017-07-05T20:26:10.395Z,53.80
2017-07-05T20:28:38.657Z,54.30
2017-07-05T20:31:06.219Z,54.20
2017-07-05T20:33:33.668Z,54.40
2017-07-05T20:36:01.130Z,54.50
2017-07-05T20:38:30.116Z,54.90
2017-07-05T20:40:57.778Z,54.90
2017-07-05T20:43:25.351Z,55.30
2017-07-05T20:45:52.915Z,55.30
2017-07-05T20:48:21.142Z,55.30
2017-07-05T20:50:48.601Z,55.80
2017-07-05T20:53:16.111Z,56.00
2017-07-05T20:55:44.366Z,56.40
2017-07-05T20:58:11.918Z,56.40
2017-07-05T21:00:39.383Z,56.60
2017-07-05T21:03:06.943Z,56.80
2017-07-05T21:05:34.411Z,57.00
2017-07-05T21:08:01.866Z,57.20
2017-07-05T21:10:29.321Z,57.20
2017-07-05T21:12:56.788Z,57.50
2017-07-05T21:15:25.005Z,57.70
2017-07-05T21:17:52.493Z,57.60
2017-07-05T21:20:19.947Z,57.80
2017-07-05T21:22:47.516Z,58.10
2017-07-05T21:25:15.070Z,58.10
2017-07-05T21:27:42.530Z,58.20
2017-07-05T21:30:10.087Z,58.40
2017-07-05T21:32:38.369Z,58.70
2017-07-05T21:35:06.598Z,58.90
2017-07-05T21:37:34.250Z,58.80
2017-07-05T21:40:01.745Z,58.90
2017-07-05T21:42:29.311Z,59.10
2017-07-05T21:44:56.792Z,58.90
2017-07-05T21:47:25.042Z,59.30
2017-07-05T21:49:52.498Z,59.30
2017-07-05T21:52:19.958Z,59.40
2017-07-05T21:54:47.517Z,59.30
2017-07-05T21:57:14.982Z,59.60
2017-07-05T21:59:42.589Z,59.90
2017-07-05T22:02:10.047Z,59.90
2017-07-05T22:04:37.505Z,59.70
2017-07-05T22:07:04.962Z,60.30
2017-07-05T22:09:32.454Z,60.80
2017-07-05T22:12:00.023Z,61.10
2017-07-05T22:14:27.587Z,61.10
2017-07-05T22:16:55.826Z,61.20
2017-07-05T22:19:23.282Z,61.20
2017-07-05T22:21:50.741Z,61.50
2017-07-05T22:24:18.227Z,61.60
2017-07-05T22:26:45.787Z,61.80
2017-07-05T22:29:13.242Z,62.20
2017-07-05T22:31:40.714Z,62.50
2017-07-05T22:34:08.961Z,62.90
2017-07-05T22:36:36.427Z,62.80
2017-07-05T22:39:03.891Z,62.80
2017-07-05T22:41:32.153Z,63.20
2017-07-05T22:43:59.701Z,63.20
2017-07-05T22:46:27.275Z,63.00
2017-07-05T22:48:54.739Z,63.20
2017-07-05T22:51:22.996Z,63.60
2017-07-05T22:53:50.558Z,63.50
2017-07-05T22:56:18.130Z,63.40
2017-07-05T22:58:45.595Z,63.60
2017-07-05T23:01:13.860Z,63.90
2017-07-05T23:03:41.363Z,63.90
2017-07-05T23:06:08.875Z,64.00
2017-07-05T23:08:36.333Z,64.10
2017-07-05T23:11:04.558Z,64.40
2017-07-05T23:13:32.017Z,64.50
2017-07-05T23:15:59.470Z,64.70
2017-07-05T23:18:26.969Z,64.50
2017-07-05T23:20:54.522Z,64.70
2017-07-05T23:23:22.102Z,64.50
2017-07-05T23:25:50.340Z,65.00
2017-07-05T23:28:17.812Z,65.00
2017-07-05T23:30:45.287Z,64.90
2017-07-05T23:33:13.543Z,65.30
2017-07-05T23:35:41.100Z,65.20
2017-07-05T23:38:08.566Z,65.00
2017-07-05T23:40:36.113Z,64.90
2017-07-05T23:43:03.571Z,64.50
2017-07-05T23:45:31.142Z,64.70
2017-07-05T23:47:58.597Z,64.60
2017-07-05T23:50:26.057Z,64.60
2017-07-05T23:52:53.611Z,64.60
2017-07-05T23:55:21.172Z,64.50
2017-07-05T23:57:48.721Z,64.50
